sensor_id;sensor_type;location;lat;lon;timestamp;P1;durP1;ratioP1;P2;durP2;ratioP2
77324;SDS011;66387;53.440;10.390;2023-05-31T00:02:01;6.50;;;3.03;;
77324;SDS011;66387;53.440;10.390;2023-05-31T00:04:26;3.40;;;2.23;;
77324;SDS011;66387;53.440;10.390;2023-05-31T00:06:52;6.90;;;2.35;;
77324;SDS011;66387;53.440;10.390;2023-05-31T00:09:17;5.13;;;2.97;;
77324;SDS011;66387;53.440;10.390;2023-05-31T00:11:42;3.07;;;2.27;;
77324;SDS011;66387;53.440;10.390;2023-05-31T00:14:08;6.13;;;2.87;;
77324;SDS011;66387;53.440;10.390;2023-05-31T00:16:33;4.73;;;2.40;;
77324;SDS011;66387;53.440;10.390;2023-05-31T00:18:58;6.53;;;2.93;;
77324;SDS011;66387;53.440;10.390;2023-05-31T00:21:23;7.60;;;2.97;;
77324;SDS011;66387;53.440;10.390;2023-05-31T00:23:49;6.03;;;2.77;;
77324;SDS011;66387;53.440;10.390;2023-05-31T00:26:14;4.87;;;2.67;;
77324;SDS011;66387;53.440;10.390;2023-05-31T00:28:39;5.50;;;2.97;;
77324;SDS011;66387;53.440;10.390;2023-05-31T00:31:04;4.47;;;2.63;;
77324;SDS011;66387;53.440;10.390;2023-05-31T00:33:30;4.37;;;2.47;;
77324;SDS011;66387;53.440;10.390;2023-05-31T00:35:55;4.97;;;2.70;;
77324;SDS011;66387;53.440;10.390;2023-05-31T00:38:20;3.77;;;2.77;;
77324;SDS011;66387;53.440;10.390;2023-05-31T00:40:45;5.20;;;2.80;;
77324;SDS011;66387;53.440;10.390;2023-05-31T00:43:12;7.50;;;3.38;;
77324;SDS011;66387;53.440;10.390;2023-05-31T00:45:37;5.37;;;3.03;;
77324;SDS011;66387;53.440;10.390;2023-05-31T00:48:02;4.20;;;2.47;;
77324;SDS011;66387;53.440;10.390;2023-05-31T00:50:28;5.75;;;3.10;;
77324;SDS011;66387;53.440;10.390;2023-05-31T00:52:54;6.18;;;2.97;;
77324;SDS011;66387;53.440;10.390;2023-05-31T00:55:21;9.13;;;3.05;;
77324;SDS011;66387;53.440;10.390;2023-05-31T00:57:47;5.70;;;3.08;;
77324;SDS011;66387;53.440;10.390;2023-05-31T01:00:12;6.00;;;3.60;;
77324;SDS011;66387;53.440;10.390;2023-05-31T01:02:40;6.45;;;2.90;;
77324;SDS011;66387;53.440;10.390;2023-05-31T01:05:06;6.72;;;3.00;;
77324;SDS011;66387;53.440;10.390;2023-05-31T01:07:32;5.55;;;3.10;;
77324;SDS011;66387;53.440;10.390;2023-05-31T01:09:58;4.68;;;3.20;;
77324;SDS011;66387;53.440;10.390;2023-05-31T01:12:25;4.85;;;3.30;;
77324;SDS011;66387;53.440;10.390;2023-05-31T01:15:10;8.88;;;3.13;;
77324;SDS011;66387;53.440;10.390;2023-05-31T01:18:14;5.05;;;3.25;;
77324;SDS011;66387;53.440;10.390;2023-05-31T01:20:50;5.20;;;3.10;;
77324;SDS011;66387;53.440;10.390;2023-05-31T01:23:39;6.15;;;3.10;;
77324;SDS011;66387;53.440;10.390;2023-05-31T01:28:58;8.35;;;3.78;;
77324;SDS011;66387;53.440;10.390;2023-05-31T01:31:25;3.40;;;2.72;;
77324;SDS011;66387;53.440;10.390;2023-05-31T01:33:52;7.40;;;3.47;;
77324;SDS011;66387;53.440;10.390;2023-05-31T01:36:18;9.77;;;3.15;;
77324;SDS011;66387;53.440;10.390;2023-05-31T01:38:43;4.50;;;3.10;;
77324;SDS011;66387;53.440;10.390;2023-05-31T01:41:08;6.80;;;3.50;;
77324;SDS011;66387;53.440;10.390;2023-05-31T01:43:40;6.53;;;2.97;;
77324;SDS011;66387;53.440;10.390;2023-05-31T01:46:08;7.35;;;3.15;;
77324;SDS011;66387;53.440;10.390;2023-05-31T01:48:35;6.50;;;2.90;;
77324;SDS011;66387;53.440;10.390;2023-05-31T01:51:02;4.40;;;2.90;;
77324;SDS011;66387;53.440;10.390;2023-05-31T01:53:30;3.90;;;2.95;;
77324;SDS011;66387;53.440;10.390;2023-05-31T01:55:56;5.17;;;2.53;;
77324;SDS011;66387;53.440;10.390;2023-05-31T01:58:22;4.18;;;2.63;;
77324;SDS011;66387;53.440;10.390;2023-05-31T02:00:50;4.65;;;3.10;;
77324;SDS011;66387;53.440;10.390;2023-05-31T02:03:16;8.80;;;3.40;;
77324;SDS011;66387;53.440;10.390;2023-05-31T02:05:57;6.83;;;2.73;;
77324;SDS011;66387;53.440;10.390;2023-05-31T02:08:24;6.80;;;3.55;;
77324;SDS011;66387;53.440;10.390;2023-05-31T02:10:50;6.97;;;3.10;;
77324;SDS011;66387;53.440;10.390;2023-05-31T02:13:16;5.82;;;3.00;;
77324;SDS011;66387;53.440;10.390;2023-05-31T02:15:42;4.88;;;2.90;;
77324;SDS011;66387;53.440;10.390;2023-05-31T02:18:08;5.93;;;3.90;;
77324;SDS011;66387;53.440;10.390;2023-05-31T02:20:33;5.93;;;3.23;;
77324;SDS011;66387;53.440;10.390;2023-05-31T02:22:59;4.57;;;2.58;;
77324;SDS011;66387;53.440;10.390;2023-05-31T02:25:24;6.80;;;3.20;;
77324;SDS011;66387;53.440;10.390;2023-05-31T02:27:49;7.78;;;4.93;;
77324;SDS011;66387;53.440;10.390;2023-05-31T02:30:15;5.40;;;2.63;;
77324;SDS011;66387;53.440;10.390;2023-05-31T02:32:40;4.03;;;3.00;;
77324;SDS011;66387;53.440;10.390;2023-05-31T02:35:07;4.32;;;3.40;;
77324;SDS011;66387;53.440;10.390;2023-05-31T02:37:34;4.53;;;3.00;;
77324;SDS011;66387;53.440;10.390;2023-05-31T02:40:00;5.22;;;2.92;;
77324;SDS011;66387;53.440;10.390;2023-05-31T02:42:26;5.75;;;3.45;;
77324;SDS011;66387;53.440;10.390;2023-05-31T02:44:51;6.87;;;3.80;;
77324;SDS011;66387;53.440;10.390;2023-05-31T02:47:16;6.20;;;3.20;;
77324;SDS011;66387;53.440;10.390;2023-05-31T02:49:42;7.30;;;3.40;;
77324;SDS011;66387;53.440;10.390;2023-05-31T02:52:07;6.40;;;3.20;;
77324;SDS011;66387;53.440;10.390;2023-05-31T02:54:33;5.05;;;2.72;;
77324;SDS011;66387;53.440;10.390;2023-05-31T02:56:58;5.10;;;3.23;;
77324;SDS011;66387;53.440;10.390;2023-05-31T02:59:24;9.77;;;3.50;;
77324;SDS011;66387;53.440;10.390;2023-05-31T03:01:49;6.97;;;3.25;;
77324;SDS011;66387;53.440;10.390;2023-05-31T03:04:15;9.50;;;3.67;;
77324;SDS011;66387;53.440;10.390;2023-05-31T03:06:40;6.90;;;3.17;;
77324;SDS011;66387;53.440;10.390;2023-05-31T03:09:07;5.30;;;2.95;;
77324;SDS011;66387;53.440;10.390;2023-05-31T03:11:33;7.85;;;3.20;;
77324;SDS011;66387;53.440;10.390;2023-05-31T03:13:58;5.90;;;3.30;;
77324;SDS011;66387;53.440;10.390;2023-05-31T03:16:23;4.17;;;2.80;;
77324;SDS011;66387;53.440;10.390;2023-05-31T03:18:49;4.68;;;2.63;;
77324;SDS011;66387;53.440;10.390;2023-05-31T03:21:15;4.60;;;2.97;;
77324;SDS011;66387;53.440;10.390;2023-05-31T03:23:41;5.88;;;3.22;;
77324;SDS011;66387;53.440;10.390;2023-05-31T03:26:06;3.70;;;2.90;;
77324;SDS011;66387;53.440;10.390;2023-05-31T03:28:31;4.67;;;2.93;;
77324;SDS011;66387;53.440;10.390;2023-05-31T03:30:57;7.27;;;3.07;;
77324;SDS011;66387;53.440;10.390;2023-05-31T03:33:22;5.93;;;3.47;;
77324;SDS011;66387;53.440;10.390;2023-05-31T03:35:49;8.73;;;3.38;;
77324;SDS011;66387;53.440;10.390;2023-05-31T03:38:15;5.10;;;3.93;;
77324;SDS011;66387;53.440;10.390;2023-05-31T03:40:40;6.47;;;3.67;;
77324;SDS011;66387;53.440;10.390;2023-05-31T03:43:05;4.63;;;3.00;;
77324;SDS011;66387;53.440;10.390;2023-05-31T03:45:30;6.60;;;4.93;;
77324;SDS011;66387;53.440;10.390;2023-05-31T03:47:56;8.17;;;4.10;;
77324;SDS011;66387;53.440;10.390;2023-05-31T03:50:21;6.10;;;3.37;;
77324;SDS011;66387;53.440;10.390;2023-05-31T03:52:46;5.97;;;3.27;;
77324;SDS011;66387;53.440;10.390;2023-05-31T03:55:11;6.93;;;3.43;;
77324;SDS011;66387;53.440;10.390;2023-05-31T03:57:37;7.17;;;4.27;;
77324;SDS011;66387;53.440;10.390;2023-05-31T04:00:02;6.77;;;4.37;;
77324;SDS011;66387;53.440;10.390;2023-05-31T04:02:28;8.50;;;3.70;;
77324;SDS011;66387;53.440;10.390;2023-05-31T04:04:53;4.50;;;3.50;;
77324;SDS011;66387;53.440;10.390;2023-05-31T04:07:19;5.53;;;3.40;;
77324;SDS011;66387;53.440;10.390;2023-05-31T04:09:44;4.68;;;3.05;;
77324;SDS011;66387;53.440;10.390;2023-05-31T04:12:09;6.43;;;3.63;;
77324;SDS011;66387;53.440;10.390;2023-05-31T04:14:35;6.87;;;3.63;;
77324;SDS011;66387;53.440;10.390;2023-05-31T04:17:00;6.10;;;3.57;;
77324;SDS011;66387;53.440;10.390;2023-05-31T04:19:25;5.75;;;3.60;;
77324;SDS011;66387;53.440;10.390;2023-05-31T04:21:50;5.97;;;4.07;;
77324;SDS011;66387;53.440;10.390;2023-05-31T04:24:16;7.07;;;4.20;;
77324;SDS011;66387;53.440;10.390;2023-05-31T04:26:41;9.43;;;4.28;;
77324;SDS011;66387;53.440;10.390;2023-05-31T04:29:07;5.97;;;4.23;;
77324;SDS011;66387;53.440;10.390;2023-05-31T04:31:32;7.80;;;4.47;;
77324;SDS011;66387;53.440;10.390;2023-05-31T04:34:01;7.13;;;4.00;;
77324;SDS011;66387;53.440;10.390;2023-05-31T04:36:28;6.70;;;3.70;;
77324;SDS011;66387;53.440;10.390;2023-05-31T04:38:54;7.95;;;3.72;;
77324;SDS011;66387;53.440;10.390;2023-05-31T04:41:20;7.45;;;6.10;;
77324;SDS011;66387;53.440;10.390;2023-05-31T04:43:46;8.35;;;4.07;;
77324;SDS011;66387;53.440;10.390;2023-05-31T04:46:12;6.45;;;4.30;;
77324;SDS011;66387;53.440;10.390;2023-05-31T04:48:38;7.07;;;4.23;;
77324;SDS011;66387;53.440;10.390;2023-05-31T04:51:03;6.97;;;4.13;;
77324;SDS011;66387;53.440;10.390;2023-05-31T04:53:29;6.43;;;4.03;;
77324;SDS011;66387;53.440;10.390;2023-05-31T04:55:55;7.03;;;4.15;;
77324;SDS011;66387;53.440;10.390;2023-05-31T04:58:20;6.40;;;4.40;;
77324;SDS011;66387;53.440;10.390;2023-05-31T05:00:45;7.87;;;4.70;;
77324;SDS011;66387;53.440;10.390;2023-05-31T05:03:11;10.88;;;5.22;;
77324;SDS011;66387;53.440;10.390;2023-05-31T05:05:37;8.35;;;3.85;;
77324;SDS011;66387;53.440;10.390;2023-05-31T05:08:02;9.32;;;4.68;;
77324;SDS011;66387;53.440;10.390;2023-05-31T05:10:27;9.47;;;4.40;;
77324;SDS011;66387;53.440;10.390;2023-05-31T05:12:53;9.23;;;4.93;;
77324;SDS011;66387;53.440;10.390;2023-05-31T05:15:18;7.43;;;4.47;;
77324;SDS011;66387;53.440;10.390;2023-05-31T05:17:43;6.33;;;3.70;;
77324;SDS011;66387;53.440;10.390;2023-05-31T05:20:10;7.60;;;4.68;;
77324;SDS011;66387;53.440;10.390;2023-05-31T05:22:36;7.00;;;4.22;;
77324;SDS011;66387;53.440;10.390;2023-05-31T05:25:01;5.30;;;3.53;;
77324;SDS011;66387;53.440;10.390;2023-05-31T05:27:26;9.93;;;4.40;;
77324;SDS011;66387;53.440;10.390;2023-05-31T05:29:52;8.73;;;4.53;;
77324;SDS011;66387;53.440;10.390;2023-05-31T05:32:17;7.83;;;4.57;;
77324;SDS011;66387;53.440;10.390;2023-05-31T05:34:42;11.50;;;4.73;;
77324;SDS011;66387;53.440;10.390;2023-05-31T05:37:08;8.20;;;4.18;;
77324;SDS011;66387;53.440;10.390;2023-05-31T05:39:34;7.90;;;5.45;;
77324;SDS011;66387;53.440;10.390;2023-05-31T05:41:59;12.45;;;4.50;;
77324;SDS011;66387;53.440;10.390;2023-05-31T05:44:26;10.00;;;5.22;;
77324;SDS011;66387;53.440;10.390;2023-05-31T05:46:51;10.67;;;4.57;;
77324;SDS011;66387;53.440;10.390;2023-05-31T05:49:17;14.05;;;6.13;;
77324;SDS011;66387;53.440;10.390;2023-05-31T05:51:42;8.73;;;4.27;;
77324;SDS011;66387;53.440;10.390;2023-05-31T05:54:07;7.83;;;3.90;;
77324;SDS011;66387;53.440;10.390;2023-05-31T05:56:32;7.67;;;4.07;;
77324;SDS011;66387;53.440;10.390;2023-05-31T05:58:58;6.37;;;4.00;;
77324;SDS011;66387;53.440;10.390;2023-05-31T06:01:24;10.57;;;4.53;;
77324;SDS011;66387;53.440;10.390;2023-05-31T06:03:52;6.00;;;4.00;;
77324;SDS011;66387;53.440;10.390;2023-05-31T06:06:17;9.27;;;4.38;;
77324;SDS011;66387;53.440;10.390;2023-05-31T06:08:43;8.02;;;4.65;;
77324;SDS011;66387;53.440;10.390;2023-05-31T06:11:09;6.30;;;4.32;;
77324;SDS011;66387;53.440;10.390;2023-05-31T06:13:34;5.75;;;4.13;;
77324;SDS011;66387;53.440;10.390;2023-05-31T06:16:00;4.77;;;3.33;;
77324;SDS011;66387;53.440;10.390;2023-05-31T06:18:26;4.75;;;3.03;;
77324;SDS011;66387;53.440;10.390;2023-05-31T06:20:51;6.47;;;3.30;;
77324;SDS011;66387;53.440;10.390;2023-05-31T06:23:18;8.80;;;3.40;;
77324;SDS011;66387;53.440;10.390;2023-05-31T06:25:43;5.67;;;3.07;;
77324;SDS011;66387;53.440;10.390;2023-05-31T06:28:09;4.60;;;2.63;;
77324;SDS011;66387;53.440;10.390;2023-05-31T06:30:35;5.20;;;3.20;;
77324;SDS011;66387;53.440;10.390;2023-05-31T06:33:00;6.20;;;3.30;;
77324;SDS011;66387;53.440;10.390;2023-05-31T06:35:25;7.17;;;3.20;;
77324;SDS011;66387;53.440;10.390;2023-05-31T06:37:50;9.53;;;4.07;;
77324;SDS011;66387;53.440;10.390;2023-05-31T06:40:17;5.28;;;3.35;;
77324;SDS011;66387;53.440;10.390;2023-05-31T06:42:42;7.05;;;3.38;;
77324;SDS011;66387;53.440;10.390;2023-05-31T06:45:08;8.77;;;3.10;;
77324;SDS011;66387;53.440;10.390;2023-05-31T06:47:33;5.68;;;3.40;;
77324;SDS011;66387;53.440;10.390;2023-05-31T06:49:59;7.30;;;3.07;;
77324;SDS011;66387;53.440;10.390;2023-05-31T06:52:24;8.70;;;4.27;;
77324;SDS011;66387;53.440;10.390;2023-05-31T06:54:49;6.53;;;3.37;;
77324;SDS011;66387;53.440;10.390;2023-05-31T06:57:16;7.38;;;3.00;;
77324;SDS011;66387;53.440;10.390;2023-05-31T06:59:41;6.03;;;2.73;;
77324;SDS011;66387;53.440;10.390;2023-05-31T07:02:06;5.67;;;2.47;;
77324;SDS011;66387;53.440;10.390;2023-05-31T07:04:31;5.80;;;2.60;;
77324;SDS011;66387;53.440;10.390;2023-05-31T07:06:57;4.40;;;2.43;;
77324;SDS011;66387;53.440;10.390;2023-05-31T07:09:22;4.23;;;2.23;;
77324;SDS011;66387;53.440;10.390;2023-05-31T07:11:47;5.80;;;2.07;;
77324;SDS011;66387;53.440;10.390;2023-05-31T07:14:13;5.28;;;2.03;;
77324;SDS011;66387;53.440;10.390;2023-05-31T07:16:38;2.87;;;1.60;;
77324;SDS011;66387;53.440;10.390;2023-05-31T07:19:03;4.83;;;1.70;;
77324;SDS011;66387;53.440;10.390;2023-05-31T07:21:29;3.20;;;1.77;;
77324;SDS011;66387;53.440;10.390;2023-05-31T07:23:54;2.78;;;1.60;;
77324;SDS011;66387;53.440;10.390;2023-05-31T07:26:20;3.35;;;1.73;;
77324;SDS011;66387;53.440;10.390;2023-05-31T07:28:47;3.13;;;1.65;;
77324;SDS011;66387;53.440;10.390;2023-05-31T07:31:12;4.45;;;1.80;;
77324;SDS011;66387;53.440;10.390;2023-05-31T07:33:40;4.53;;;2.33;;
77324;SDS011;66387;53.440;10.390;2023-05-31T07:36:06;7.65;;;2.42;;
77324;SDS011;66387;53.440;10.390;2023-05-31T07:38:31;3.33;;;1.90;;
77324;SDS011;66387;53.440;10.390;2023-05-31T07:40:56;4.67;;;2.40;;
77324;SDS011;66387;53.440;10.390;2023-05-31T07:43:22;3.07;;;2.40;;
77324;SDS011;66387;53.440;10.390;2023-05-31T07:45:48;3.53;;;2.10;;
77324;SDS011;66387;53.440;10.390;2023-05-31T07:48:15;5.38;;;2.63;;
77324;SDS011;66387;53.440;10.390;2023-05-31T07:50:41;3.72;;;1.80;;
77324;SDS011;66387;53.440;10.390;2023-05-31T07:53:06;4.33;;;1.90;;
77324;SDS011;66387;53.440;10.390;2023-05-31T07:55:32;3.87;;;1.60;;
77324;SDS011;66387;53.440;10.390;2023-05-31T07:57:57;3.60;;;1.83;;
77324;SDS011;66387;53.440;10.390;2023-05-31T08:00:23;2.70;;;1.73;;
77324;SDS011;66387;53.440;10.390;2023-05-31T08:02:48;3.33;;;1.70;;
77324;SDS011;66387;53.440;10.390;2023-05-31T08:05:14;3.08;;;1.63;;
77324;SDS011;66387;53.440;10.390;2023-05-31T08:07:39;5.47;;;2.00;;
77324;SDS011;66387;53.440;10.390;2023-05-31T08:10:04;2.67;;;1.97;;
77324;SDS011;66387;53.440;10.390;2023-05-31T08:12:30;7.32;;;3.40;;
77324;SDS011;66387;53.440;10.390;2023-05-31T08:14:56;3.15;;;1.70;;
77324;SDS011;66387;53.440;10.390;2023-05-31T08:17:21;2.53;;;1.67;;
77324;SDS011;66387;53.440;10.390;2023-05-31T08:19:46;3.13;;;1.80;;
77324;SDS011;66387;53.440;10.390;2023-05-31T08:22:11;4.03;;;2.00;;
77324;SDS011;66387;53.440;10.390;2023-05-31T08:24:37;3.50;;;1.67;;
77324;SDS011;66387;53.440;10.390;2023-05-31T08:27:02;2.57;;;1.57;;
77324;SDS011;66387;53.440;10.390;2023-05-31T08:29:27;3.33;;;1.58;;
77324;SDS011;66387;53.440;10.390;2023-05-31T08:31:53;4.20;;;1.60;;
77324;SDS011;66387;53.440;10.390;2023-05-31T08:34:18;2.63;;;1.50;;
77324;SDS011;66387;53.440;10.390;2023-05-31T08:36:44;2.72;;;1.45;;
77324;SDS011;66387;53.440;10.390;2023-05-31T08:39:09;2.00;;;1.38;;
77324;SDS011;66387;53.440;10.390;2023-05-31T08:42:19;2.15;;;1.40;;
77324;SDS011;66387;53.440;10.390;2023-05-31T08:44:26;2.65;;;1.80;;
77324;SDS011;66387;53.440;10.390;2023-05-31T08:46:52;3.05;;;1.60;;
77324;SDS011;66387;53.440;10.390;2023-05-31T08:49:22;3.42;;;1.70;;
77324;SDS011;66387;53.440;10.390;2023-05-31T08:51:49;3.78;;;1.77;;
77324;SDS011;66387;53.440;10.390;2023-05-31T08:54:14;2.20;;;1.60;;
77324;SDS011;66387;53.440;10.390;2023-05-31T08:59:08;2.60;;;1.45;;
77324;SDS011;66387;53.440;10.390;2023-05-31T09:01:36;5.53;;;2.05;;
77324;SDS011;66387;53.440;10.390;2023-05-31T09:04:06;3.28;;;2.17;;
77324;SDS011;66387;53.440;10.390;2023-05-31T09:06:32;4.38;;;2.20;;
77324;SDS011;66387;53.440;10.390;2023-05-31T09:08:58;7.15;;;1.92;;
77324;SDS011;66387;53.440;10.390;2023-05-31T09:11:25;3.38;;;1.77;;
77324;SDS011;66387;53.440;10.390;2023-05-31T09:13:50;2.40;;;1.90;;
77324;SDS011;66387;53.440;10.390;2023-05-31T09:16:16;3.42;;;1.85;;
77324;SDS011;66387;53.440;10.390;2023-05-31T09:18:41;3.28;;;2.38;;
77324;SDS011;66387;53.440;10.390;2023-05-31T09:21:10;3.55;;;1.90;;
77324;SDS011;66387;53.440;10.390;2023-05-31T09:23:37;5.05;;;1.75;;
77324;SDS011;66387;53.440;10.390;2023-05-31T09:26:05;3.27;;;1.90;;
77324;SDS011;66387;53.440;10.390;2023-05-31T09:28:31;4.72;;;1.92;;
77324;SDS011;66387;53.440;10.390;2023-05-31T09:33:38;2.88;;;2.30;;
77324;SDS011;66387;53.440;10.390;2023-05-31T09:36:05;4.75;;;2.47;;
77324;SDS011;66387;53.440;10.390;2023-05-31T09:38:31;3.55;;;1.67;;
77324;SDS011;66387;53.440;10.390;2023-05-31T09:41:31;4.00;;;2.08;;
77324;SDS011;66387;53.440;10.390;2023-05-31T09:43:50;3.63;;;2.05;;
77324;SDS011;66387;53.440;10.390;2023-05-31T09:46:17;3.70;;;1.93;;
77324;SDS011;66387;53.440;10.390;2023-05-31T09:51:29;6.72;;;2.83;;
77324;SDS011;66387;53.440;10.390;2023-05-31T09:53:57;5.88;;;2.22;;
77324;SDS011;66387;53.440;10.390;2023-05-31T09:56:24;5.35;;;1.83;;
77324;SDS011;66387;53.440;10.390;2023-05-31T09:58:52;4.45;;;2.20;;
77324;SDS011;66387;53.440;10.390;2023-05-31T10:01:21;5.78;;;2.75;;
77324;SDS011;66387;53.440;10.390;2023-05-31T10:03:49;5.33;;;2.40;;
77324;SDS011;66387;53.440;10.390;2023-05-31T10:06:16;5.75;;;3.22;;
77324;SDS011;66387;53.440;10.390;2023-05-31T10:08:43;3.78;;;2.97;;
77324;SDS011;66387;53.440;10.390;2023-05-31T10:11:09;4.88;;;2.42;;
77324;SDS011;66387;53.440;10.390;2023-05-31T10:13:38;4.60;;;2.47;;
77324;SDS011;66387;53.440;10.390;2023-05-31T10:16:07;7.78;;;4.10;;
77324;SDS011;66387;53.440;10.390;2023-05-31T10:18:40;5.68;;;2.60;;
77324;SDS011;66387;53.440;10.390;2023-05-31T10:21:12;5.03;;;2.78;;
77324;SDS011;66387;53.440;10.390;2023-05-31T10:23:49;8.23;;;3.13;;
77324;SDS011;66387;53.440;10.390;2023-05-31T10:26:42;8.48;;;3.97;;
77324;SDS011;66387;53.440;10.390;2023-05-31T10:29:16;6.63;;;2.25;;
77324;SDS011;66387;53.440;10.390;2023-05-31T10:31:48;4.70;;;2.83;;
77324;SDS011;66387;53.440;10.390;2023-05-31T10:34:24;6.60;;;3.00;;
77324;SDS011;66387;53.440;10.390;2023-05-31T10:36:51;7.35;;;2.40;;
77324;SDS011;66387;53.440;10.390;2023-05-31T10:39:24;3.35;;;2.05;;
77324;SDS011;66387;53.440;10.390;2023-05-31T10:44:36;4.75;;;2.42;;
77324;SDS011;66387;53.440;10.390;2023-05-31T10:47:07;6.13;;;2.60;;
77324;SDS011;66387;53.440;10.390;2023-05-31T10:49:34;4.93;;;2.30;;
77324;SDS011;66387;53.440;10.390;2023-05-31T10:52:05;4.68;;;2.60;;
77324;SDS011;66387;53.440;10.390;2023-05-31T10:54:33;5.22;;;2.30;;
77324;SDS011;66387;53.440;10.390;2023-05-31T10:56:58;2.85;;;2.15;;
77324;SDS011;66387;53.440;10.390;2023-05-31T10:59:27;5.70;;;2.50;;
77324;SDS011;66387;53.440;10.390;2023-05-31T11:01:53;5.13;;;2.28;;
77324;SDS011;66387;53.440;10.390;2023-05-31T11:04:22;7.63;;;2.72;;
77324;SDS011;66387;53.440;10.390;2023-05-31T11:06:53;2.70;;;2.22;;
77324;SDS011;66387;53.440;10.390;2023-05-31T11:09:20;6.35;;;2.42;;
77324;SDS011;66387;53.440;10.390;2023-05-31T11:11:47;6.38;;;2.95;;
77324;SDS011;66387;53.440;10.390;2023-05-31T11:19:19;4.00;;;1.98;;
77324;SDS011;66387;53.440;10.390;2023-05-31T11:21:49;3.97;;;2.00;;
77324;SDS011;66387;53.440;10.390;2023-05-31T11:24:28;3.50;;;2.22;;
77324;SDS011;66387;53.440;10.390;2023-05-31T11:26:58;5.45;;;2.33;;
77324;SDS011;66387;53.440;10.390;2023-05-31T11:34:58;5.22;;;2.47;;
77324;SDS011;66387;53.440;10.390;2023-05-31T11:37:28;4.13;;;2.42;;
77324;SDS011;66387;53.440;10.390;2023-05-31T11:39:55;6.70;;;2.30;;
77324;SDS011;66387;53.440;10.390;2023-05-31T11:42:20;3.83;;;2.17;;
77324;SDS011;66387;53.440;10.390;2023-05-31T11:44:46;7.13;;;2.63;;
77324;SDS011;66387;53.440;10.390;2023-05-31T11:47:18;8.40;;;2.33;;
77324;SDS011;66387;53.440;10.390;2023-05-31T11:49:43;3.75;;;2.20;;
77324;SDS011;66387;53.440;10.390;2023-05-31T11:52:09;6.53;;;2.17;;
77324;SDS011;66387;53.440;10.390;2023-05-31T11:54:41;6.30;;;2.85;;
77324;SDS011;66387;53.440;10.390;2023-05-31T11:57:08;6.57;;;2.75;;
77324;SDS011;66387;53.440;10.390;2023-05-31T11:59:34;3.95;;;2.28;;
77324;SDS011;66387;53.440;10.390;2023-05-31T12:02:01;4.85;;;2.20;;
77324;SDS011;66387;53.440;10.390;2023-05-31T12:04:28;5.70;;;2.45;;
77324;SDS011;66387;53.440;10.390;2023-05-31T12:06:54;3.67;;;1.83;;
77324;SDS011;66387;53.440;10.390;2023-05-31T12:09:22;5.33;;;2.70;;
77324;SDS011;66387;53.440;10.390;2023-05-31T12:11:48;5.53;;;2.00;;
77324;SDS011;66387;53.440;10.390;2023-05-31T12:14:14;4.13;;;2.40;;
77324;SDS011;66387;53.440;10.390;2023-05-31T12:16:40;5.68;;;2.38;;
77324;SDS011;66387;53.440;10.390;2023-05-31T12:19:10;4.72;;;2.45;;
77324;SDS011;66387;53.440;10.390;2023-05-31T12:21:36;3.78;;;1.60;;
77324;SDS011;66387;53.440;10.390;2023-05-31T12:24:03;5.15;;;2.08;;
77324;SDS011;66387;53.440;10.390;2023-05-31T12:26:44;4.18;;;1.90;;
77324;SDS011;66387;53.440;10.390;2023-05-31T12:29:13;4.15;;;1.60;;
77324;SDS011;66387;53.440;10.390;2023-05-31T12:31:39;4.85;;;1.98;;
77324;SDS011;66387;53.440;10.390;2023-05-31T12:37:04;4.23;;;2.30;;
77324;SDS011;66387;53.440;10.390;2023-05-31T12:39:23;2.63;;;1.60;;
77324;SDS011;66387;53.440;10.390;2023-05-31T12:41:52;3.33;;;1.80;;
77324;SDS011;66387;53.440;10.390;2023-05-31T12:44:18;2.95;;;1.92;;
77324;SDS011;66387;53.440;10.390;2023-05-31T12:46:45;4.75;;;2.50;;
77324;SDS011;66387;53.440;10.390;2023-05-31T12:51:38;4.40;;;2.08;;
77324;SDS011;66387;53.440;10.390;2023-05-31T12:54:08;5.60;;;1.97;;
77324;SDS011;66387;53.440;10.390;2023-05-31T12:56:35;2.10;;;1.60;;
77324;SDS011;66387;53.440;10.390;2023-05-31T12:59:00;4.20;;;1.73;;
77324;SDS011;66387;53.440;10.390;2023-05-31T13:01:25;3.17;;;1.35;;
77324;SDS011;66387;53.440;10.390;2023-05-31T13:03:52;2.60;;;1.40;;
77324;SDS011;66387;53.440;10.390;2023-05-31T13:06:17;3.33;;;1.50;;
77324;SDS011;66387;53.440;10.390;2023-05-31T13:08:43;2.53;;;1.80;;
77324;SDS011;66387;53.440;10.390;2023-05-31T13:11:09;4.80;;;1.98;;
77324;SDS011;66387;53.440;10.390;2023-05-31T13:13:34;2.75;;;2.00;;
77324;SDS011;66387;53.440;10.390;2023-05-31T13:15:59;5.10;;;2.20;;
77324;SDS011;66387;53.440;10.390;2023-05-31T13:18:25;5.60;;;2.00;;
77324;SDS011;66387;53.440;10.390;2023-05-31T13:20:53;2.53;;;1.50;;
77324;SDS011;66387;53.440;10.390;2023-05-31T13:23:19;4.07;;;1.80;;
77324;SDS011;66387;53.440;10.390;2023-05-31T13:25:44;5.23;;;1.97;;
77324;SDS011;66387;53.440;10.390;2023-05-31T13:28:09;5.07;;;1.92;;
77324;SDS011;66387;53.440;10.390;2023-05-31T13:30:35;4.27;;;2.10;;
77324;SDS011;66387;53.440;10.390;2023-05-31T13:33:00;4.80;;;2.20;;
77324;SDS011;66387;53.440;10.390;2023-05-31T13:35:25;4.27;;;2.33;;
77324;SDS011;66387;53.440;10.390;2023-05-31T13:37:51;3.80;;;1.90;;
77324;SDS011;66387;53.440;10.390;2023-05-31T13:40:16;3.83;;;2.60;;
77324;SDS011;66387;53.440;10.390;2023-05-31T13:42:41;7.73;;;2.47;;
77324;SDS011;66387;53.440;10.390;2023-05-31T13:45:07;3.77;;;2.17;;
77324;SDS011;66387;53.440;10.390;2023-05-31T13:47:32;6.32;;;2.88;;
77324;SDS011;66387;53.440;10.390;2023-05-31T13:49:58;4.20;;;2.13;;
77324;SDS011;66387;53.440;10.390;2023-05-31T13:52:23;6.43;;;2.30;;
77324;SDS011;66387;53.440;10.390;2023-05-31T13:54:48;5.20;;;2.17;;
77324;SDS011;66387;53.440;10.390;2023-05-31T13:57:14;10.17;;;2.70;;
77324;SDS011;66387;53.440;10.390;2023-05-31T13:59:39;3.58;;;2.42;;
77324;SDS011;66387;53.440;10.390;2023-05-31T14:02:05;5.85;;;2.40;;
77324;SDS011;66387;53.440;10.390;2023-05-31T14:04:30;5.90;;;2.10;;
77324;SDS011;66387;53.440;10.390;2023-05-31T14:06:56;3.40;;;1.85;;
77324;SDS011;66387;53.440;10.390;2023-05-31T14:09:22;4.85;;;2.25;;
77324;SDS011;66387;53.440;10.390;2023-05-31T14:11:47;6.40;;;2.10;;
77324;SDS011;66387;53.440;10.390;2023-05-31T14:14:12;5.30;;;1.73;;
77324;SDS011;66387;53.440;10.390;2023-05-31T14:16:38;4.03;;;1.73;;
77324;SDS011;66387;53.440;10.390;2023-05-31T14:19:03;6.07;;;2.03;;
77324;SDS011;66387;53.440;10.390;2023-05-31T14:21:29;4.93;;;1.73;;
77324;SDS011;66387;53.440;10.390;2023-05-31T14:23:54;5.25;;;2.10;;
77324;SDS011;66387;53.440;10.390;2023-05-31T14:26:19;5.00;;;2.30;;
77324;SDS011;66387;53.440;10.390;2023-05-31T14:28:45;6.05;;;2.42;;
77324;SDS011;66387;53.440;10.390;2023-05-31T14:31:10;5.03;;;2.00;;
77324;SDS011;66387;53.440;10.390;2023-05-31T14:33:38;4.87;;;1.80;;
77324;SDS011;66387;53.440;10.390;2023-05-31T14:36:04;5.45;;;1.90;;
77324;SDS011;66387;53.440;10.390;2023-05-31T14:38:29;3.53;;;1.70;;
77324;SDS011;66387;53.440;10.390;2023-05-31T14:40:54;5.07;;;1.80;;
77324;SDS011;66387;53.440;10.390;2023-05-31T14:43:20;5.03;;;2.08;;
77324;SDS011;66387;53.440;10.390;2023-05-31T14:45:45;4.53;;;1.90;;
77324;SDS011;66387;53.440;10.390;2023-05-31T14:48:12;5.07;;;1.65;;
77324;SDS011;66387;53.440;10.390;2023-05-31T14:50:37;5.50;;;1.77;;
77324;SDS011;66387;53.440;10.390;2023-05-31T14:53:02;4.27;;;1.93;;
77324;SDS011;66387;53.440;10.390;2023-05-31T14:55:28;5.50;;;2.67;;
77324;SDS011;66387;53.440;10.390;2023-05-31T14:57:53;3.50;;;1.50;;
77324;SDS011;66387;53.440;10.390;2023-05-31T15:00:19;3.45;;;1.63;;